createdAt,value
2022-09-21T00:01:17.352Z,0.65
2022-09-21T00:03:44.195Z,0.80
2022-09-21T00:06:16.488Z,0.82
2022-09-21T00:08:43.206Z,0.60
2022-09-21T00:11:14.130Z,0.80
2022-09-21T00:13:40.814Z,0.73
2022-09-21T00:16:08.051Z,0.60
2022-09-21T00:18:34.832Z,0.70
2022-09-21T00:21:02.171Z,0.60
2022-09-21T00:23:29.363Z,0.60
2022-09-21T00:26:09.875Z,0.75
2022-09-21T00:28:36.604Z,0.70
2022-09-21T00:31:04.574Z,0.70
2022-09-21T00:33:31.498Z,0.82
2022-09-21T00:36:04.652Z,0.80
2022-09-21T00:38:31.638Z,0.70
2022-09-21T00:40:58.240Z,0.80
2022-09-21T00:43:24.859Z,0.70
2022-09-21T00:45:53.484Z,0.65
2022-09-21T00:48:22.098Z,0.60
2022-09-21T00:50:50.003Z,0.70
2022-09-21T00:53:16.900Z,0.80
2022-09-21T00:55:45.467Z,0.80
2022-09-21T00:58:15.405Z,0.80
2022-09-21T01:00:42.162Z,0.70
2022-09-21T01:03:08.860Z,0.65
2022-09-21T01:05:35.427Z,0.90
2022-09-21T01:08:02.813Z,0.80
2022-09-21T01:10:31.808Z,0.82
2022-09-21T01:12:58.502Z,0.80
2022-09-21T01:15:33.936Z,0.80
2022-09-21T01:18:20.811Z,0.80
2022-09-21T01:20:55.853Z,0.70
2022-09-21T01:23:39.509Z,0.63
2022-09-21T01:26:27.135Z,0.70
2022-09-21T01:29:21.101Z,0.70
2022-09-21T01:31:58.598Z,0.70
2022-09-21T01:34:42.768Z,0.68
2022-09-21T01:37:12.733Z,0.70
2022-09-21T01:39:39.353Z,0.90
2022-09-21T01:42:06.629Z,0.70
2022-09-21T01:44:33.498Z,0.85
2022-09-21T01:47:03.657Z,0.73
2022-09-21T01:49:32.785Z,0.70
2022-09-21T01:52:02.560Z,0.70
2022-09-21T01:54:34.101Z,0.70
2022-09-21T01:57:00.479Z,0.70
2022-09-21T01:59:32.594Z,0.80
2022-09-21T02:02:01.161Z,0.70
2022-09-21T02:04:27.745Z,0.80
2022-09-21T02:06:54.372Z,0.80
2022-09-21T02:09:22.419Z,0.70
2022-09-21T02:11:49.020Z,0.68
2022-09-21T02:14:17.384Z,0.80
2022-09-21T02:17:13.328Z,0.85
2022-09-21T02:19:48.038Z,0.73
2022-09-21T02:22:31.722Z,0.80
2022-09-21T02:25:15.809Z,0.70
2022-09-21T02:28:01.774Z,0.70
2022-09-21T02:33:15.782Z,0.60
2022-09-21T02:35:51.151Z,0.80
2022-09-21T02:38:40.433Z,0.70
2022-09-21T02:41:13.905Z,0.80
2022-09-21T02:44:01.862Z,0.80
2022-09-21T02:46:35.502Z,0.70
2022-09-21T02:49:07.555Z,0.80
2022-09-21T02:51:37.129Z,0.88
2022-09-21T02:54:04.693Z,0.80
2022-09-21T02:56:31.316Z,0.73
2022-09-21T02:59:00.516Z,0.75
2022-09-21T03:01:27.182Z,0.85
2022-09-21T03:03:53.815Z,0.70
2022-09-21T03:06:20.407Z,0.70
2022-09-21T03:08:47.061Z,0.90
2022-09-21T03:11:17.832Z,0.90
2022-09-21T03:13:44.451Z,0.70
2022-09-21T03:16:11.550Z,0.70
2022-09-21T03:18:38.249Z,0.80
2022-09-21T03:21:04.891Z,0.73
2022-09-21T03:23:31.567Z,0.77
2022-09-21T03:25:58.282Z,0.70
2022-09-21T03:28:24.948Z,0.70
2022-09-21T03:30:51.763Z,0.90
2022-09-21T03:33:19.047Z,0.70
2022-09-21T03:35:46.034Z,0.80
2022-09-21T03:38:13.069Z,0.90
2022-09-21T03:40:39.747Z,0.70
2022-09-21T03:43:06.550Z,0.80
2022-09-21T03:45:33.189Z,0.80
2022-09-21T03:48:00.296Z,0.70
2022-09-21T03:50:28.200Z,0.70
2022-09-21T03:52:58.108Z,0.73
2022-09-21T03:55:25.029Z,0.88
2022-09-21T03:57:51.940Z,0.85
2022-09-21T04:00:19.183Z,0.88
2022-09-21T04:02:45.942Z,0.70
2022-09-21T04:05:13.836Z,0.80
2022-09-21T04:07:40.599Z,0.85
2022-09-21T04:10:08.328Z,0.60
2022-09-21T04:12:34.989Z,0.65
2022-09-21T04:15:01.796Z,0.80
2022-09-21T04:17:28.680Z,0.85
2022-09-21T04:19:55.342Z,0.75
2022-09-21T04:22:22.153Z,0.85
2022-09-21T04:24:48.828Z,0.77
2022-09-21T04:27:15.493Z,0.80
2022-09-21T04:29:42.109Z,0.60
2022-09-21T04:32:09.465Z,0.77
2022-09-21T04:34:36.066Z,0.80
2022-09-21T04:37:02.708Z,0.73
2022-09-21T04:39:29.335Z,0.80
2022-09-21T04:41:56.231Z,0.80
2022-09-21T04:44:22.914Z,0.70
2022-09-21T04:46:49.469Z,1.00
2022-09-21T04:49:16.133Z,0.80
2022-09-21T04:51:42.785Z,0.90
2022-09-21T04:54:09.768Z,0.90
2022-09-21T04:56:36.387Z,0.70
2022-09-21T04:59:03.086Z,0.80
2022-09-21T05:01:29.924Z,0.77
2022-09-21T05:03:56.745Z,0.80
2022-09-21T05:06:23.438Z,1.00
2022-09-21T05:08:50.069Z,0.80
2022-09-21T05:11:18.269Z,0.60
2022-09-21T05:13:45.481Z,0.80
2022-09-21T05:16:12.601Z,0.88
2022-09-21T05:18:39.372Z,1.00
2022-09-21T05:21:06.001Z,0.80
2022-09-21T05:23:32.627Z,1.00
2022-09-21T05:25:59.500Z,1.00
2022-09-21T05:28:27.028Z,0.95
2022-09-21T05:31:18.722Z,0.90
2022-09-21T05:33:53.981Z,0.82
2022-09-21T05:36:51.049Z,0.90
2022-09-21T05:39:17.957Z,0.90
2022-09-21T05:41:46.451Z,0.90
2022-09-21T05:44:13.904Z,0.82
2022-09-21T05:46:43.080Z,0.98
2022-09-21T05:49:12.585Z,0.93
2022-09-21T05:52:08.947Z,1.10
2022-09-21T05:57:55.426Z,0.80
2022-09-21T06:00:22.930Z,0.90
2022-09-21T06:02:51.008Z,1.13
2022-09-21T06:05:17.916Z,1.00
2022-09-21T06:07:44.630Z,1.10
2022-09-21T06:10:12.951Z,1.05
2022-09-21T06:12:40.244Z,1.00
2022-09-21T06:15:07.888Z,1.00
2022-09-21T06:17:34.464Z,1.00
2022-09-21T06:20:01.225Z,1.13
2022-09-21T06:22:27.914Z,1.30
2022-09-21T06:24:54.497Z,0.98
2022-09-21T06:27:21.906Z,1.00
2022-09-21T06:29:48.571Z,1.42
2022-09-21T06:32:15.313Z,1.17
2022-09-21T06:34:41.941Z,1.17
2022-09-21T06:37:09.101Z,1.00
2022-09-21T06:39:35.784Z,1.20
2022-09-21T06:42:02.443Z,1.20
2022-09-21T06:44:29.071Z,1.10
2022-09-21T06:46:55.708Z,1.48
2022-09-21T06:49:22.346Z,2.03
2022-09-21T06:51:48.988Z,2.40
2022-09-21T06:54:15.618Z,3.13
2022-09-21T06:56:42.576Z,2.50
2022-09-21T06:59:09.311Z,2.28
2022-09-21T07:01:35.919Z,1.90
2022-09-21T07:04:02.594Z,1.70
2022-09-21T07:06:29.230Z,1.50
2022-09-21T07:11:42.511Z,1.75
2022-09-21T07:14:09.815Z,2.20
2022-09-21T07:16:36.482Z,2.28
2022-09-21T07:19:10.331Z,2.08
2022-09-21T07:21:37.928Z,3.33
2022-09-21T07:24:08.267Z,2.75
2022-09-21T07:26:37.885Z,2.45
2022-09-21T07:29:04.867Z,2.08
2022-09-21T07:31:31.669Z,2.10
2022-09-21T07:33:59.832Z,2.60
2022-09-21T07:36:26.500Z,1.98
2022-09-21T07:38:53.347Z,2.10
2022-09-21T07:41:19.987Z,1.67
2022-09-21T07:43:46.646Z,2.45
2022-09-21T07:46:13.816Z,2.25
2022-09-21T07:48:40.774Z,2.33
2022-09-21T07:51:08.660Z,2.50
2022-09-21T07:53:35.983Z,2.40
2022-09-21T07:56:07.624Z,2.08
2022-09-21T07:58:38.134Z,2.72
2022-09-21T08:01:06.219Z,2.33
2022-09-21T08:03:32.822Z,2.10
2022-09-21T08:05:59.759Z,1.80
2022-09-21T08:08:26.473Z,2.17
2022-09-21T08:10:53.134Z,2.33
2022-09-21T08:13:19.810Z,2.45
2022-09-21T08:15:50.062Z,3.30
2022-09-21T08:18:17.068Z,3.10
2022-09-21T08:20:43.785Z,3.05
2022-09-21T08:23:10.503Z,2.92
2022-09-21T08:25:37.255Z,3.03
2022-09-21T08:28:08.822Z,2.58
2022-09-21T08:30:36.301Z,2.42
2022-09-21T08:33:03.120Z,4.78
2022-09-21T08:35:30.730Z,2.50
2022-09-21T08:37:57.347Z,2.17
2022-09-21T08:40:24.146Z,2.17
2022-09-21T08:43:01.324Z,1.90
2022-09-21T08:45:35.182Z,2.28
2022-09-21T08:48:03.842Z,2.85
2022-09-21T08:50:42.682Z,2.08
2022-09-21T08:53:41.345Z,2.47
2022-09-21T08:56:11.245Z,2.13
2022-09-21T08:58:37.844Z,1.95
2022-09-21T09:01:19.772Z,1.95
2022-09-21T09:04:05.967Z,1.80
2022-09-21T09:06:41.868Z,2.00
2022-09-21T09:09:45.816Z,2.15
2022-09-21T09:12:23.580Z,2.00
2022-09-21T09:15:00.037Z,1.80
2022-09-21T09:17:43.020Z,1.88
2022-09-21T09:20:21.672Z,1.80
2022-09-21T09:23:02.146Z,2.08
2022-09-21T09:25:28.769Z,2.25
2022-09-21T09:27:56.426Z,1.90
2022-09-21T09:30:29.210Z,1.80
2022-09-21T09:33:22.073Z,1.38
2022-09-21T09:35:51.018Z,1.75
2022-09-21T09:38:24.672Z,1.73
2022-09-21T09:41:30.874Z,1.65
2022-09-21T09:44:34.831Z,1.40
2022-09-21T09:47:04.422Z,1.50
2022-09-21T09:49:52.461Z,1.40
2022-09-21T09:52:19.152Z,1.40
2022-09-21T09:54:45.708Z,1.42
2022-09-21T09:57:13.545Z,1.45
2022-09-21T09:59:50.476Z,1.30
2022-09-21T10:02:21.931Z,1.38
2022-09-21T10:05:04.836Z,1.30
2022-09-21T10:07:37.496Z,1.33
2022-09-21T10:10:29.142Z,1.30
2022-09-21T10:13:06.790Z,1.25
2022-09-21T10:15:33.558Z,1.30
2022-09-21T10:18:11.410Z,1.50
2022-09-21T10:20:38.053Z,1.45
2022-09-21T10:23:04.653Z,1.15
2022-09-21T10:25:31.337Z,1.25
2022-09-21T10:27:58.218Z,1.13
2022-09-21T10:30:31.526Z,1.20
2022-09-21T10:32:58.661Z,1.17
2022-09-21T10:35:25.778Z,1.30
2022-09-21T10:38:10.585Z,1.30
2022-09-21T10:40:37.941Z,0.93
2022-09-21T10:43:04.601Z,1.00
2022-09-21T10:45:32.389Z,1.05
2022-09-21T10:47:59.781Z,2.05
2022-09-21T10:50:45.466Z,1.70
2022-09-21T10:56:19.064Z,0.80
2022-09-21T10:59:26.794Z,0.90
2022-09-21T11:01:55.543Z,1.00
2022-09-21T11:04:25.205Z,1.00
2022-09-21T11:06:58.740Z,0.98
2022-09-21T11:09:31.650Z,0.80
2022-09-21T11:12:06.088Z,0.70
2022-09-21T11:14:42.429Z,0.77
2022-09-21T11:17:14.998Z,0.68
2022-09-21T11:19:47.415Z,0.57
2022-09-21T11:22:23.184Z,0.68
2022-09-21T11:25:06.413Z,0.68
2022-09-21T11:27:43.212Z,0.60
2022-09-21T11:30:12.730Z,0.60
2022-09-21T11:32:42.049Z,0.60
2022-09-21T11:35:08.497Z,0.60
2022-09-21T11:37:46.370Z,0.57
2022-09-21T11:40:33.842Z,0.52
2022-09-21T11:43:16.740Z,0.50
2022-09-21T11:45:50.762Z,0.50
2022-09-21T11:48:45.361Z,0.50
2022-09-21T11:51:25.901Z,0.55
2022-09-21T11:54:41.744Z,0.70
2022-09-21T11:57:25.344Z,0.50
2022-09-21T12:00:14.240Z,0.45
2022-09-21T12:03:19.348Z,0.40
2022-09-21T12:06:11.906Z,0.60
2022-09-21T12:09:05.674Z,1.00
2022-09-21T12:11:36.889Z,0.70
2022-09-21T12:14:33.689Z,0.75
2022-09-21T12:17:16.055Z,0.75
2022-09-21T12:19:47.623Z,0.60
2022-09-21T12:22:23.944Z,0.43
2022-09-21T12:24:54.766Z,0.60
2022-09-21T12:27:27.093Z,0.50
2022-09-21T12:29:57.058Z,0.55
2022-09-21T12:32:36.984Z,0.70
2022-09-21T12:35:05.114Z,0.60
2022-09-21T12:37:45.998Z,0.70
2022-09-21T12:40:21.128Z,0.70
2022-09-21T12:43:25.637Z,0.60
2022-09-21T12:46:01.970Z,0.38
2022-09-21T12:48:38.927Z,0.60
2022-09-21T12:51:23.866Z,0.73
2022-09-21T12:53:53.001Z,1.07
2022-09-21T12:56:41.360Z,0.88
2022-09-21T12:59:56.009Z,0.90
2022-09-21T13:02:41.526Z,0.70
2022-09-21T13:05:26.758Z,0.57
2022-09-21T13:08:00.865Z,0.60
2022-09-21T13:10:27.282Z,0.60
2022-09-21T13:12:56.528Z,0.65
2022-09-21T13:15:28.246Z,0.70
2022-09-21T13:18:05.627Z,0.80
2022-09-21T13:20:36.762Z,0.82
2022-09-21T13:23:04.061Z,0.60
2022-09-21T13:25:31.786Z,0.80
2022-09-21T13:28:14.427Z,0.68
2022-09-21T13:31:39.456Z,0.70
2022-09-21T13:34:23.234Z,0.93
2022-09-21T13:37:11.527Z,0.80
2022-09-21T13:39:44.477Z,0.73
2022-09-21T13:42:44.056Z,0.75
2022-09-21T13:45:14.163Z,1.08
2022-09-21T13:47:47.155Z,1.13
2022-09-21T13:50:20.216Z,1.13
2022-09-21T13:52:48.472Z,0.93
2022-09-21T13:55:25.334Z,0.90
2022-09-21T13:57:52.969Z,0.88
2022-09-21T14:00:19.432Z,0.80
2022-09-21T14:02:52.842Z,0.55
2022-09-21T14:05:34.405Z,0.60
2022-09-21T14:08:33.152Z,0.70
2022-09-21T14:11:16.001Z,0.90
2022-09-21T14:13:47.010Z,0.82
2022-09-21T14:16:29.225Z,0.70
2022-09-21T14:18:56.266Z,0.70
2022-09-21T14:21:23.025Z,0.50
2022-09-21T14:24:18.536Z,0.70
2022-09-21T14:26:59.744Z,0.82
2022-09-21T14:29:38.202Z,0.68
2022-09-21T14:32:05.584Z,1.00
2022-09-21T14:34:34.579Z,0.80
2022-09-21T14:37:03.720Z,1.00
2022-09-21T14:39:31.578Z,1.20
2022-09-21T14:42:00.886Z,0.70
2022-09-21T14:44:29.773Z,0.60
2022-09-21T14:47:42.084Z,0.70
2022-09-21T14:50:30.010Z,1.05
2022-09-21T14:53:08.971Z,0.90
2022-09-21T14:56:06.039Z,0.90
2022-09-21T14:58:54.691Z,0.60
2022-09-21T15:01:27.119Z,0.50
2022-09-21T15:04:12.363Z,0.50
2022-09-21T15:06:43.580Z,0.70
2022-09-21T15:09:34.860Z,0.70
2022-09-21T15:12:11.324Z,0.80
2022-09-21T15:14:41.049Z,0.50
2022-09-21T15:17:27.021Z,0.50
2022-09-21T15:19:58.020Z,0.50
2022-09-21T15:22:24.597Z,0.50
2022-09-21T15:24:55.753Z,0.60
2022-09-21T15:27:23.885Z,0.77
2022-09-21T15:29:54.619Z,0.60
2022-09-21T15:32:38.000Z,0.47
2022-09-21T15:35:11.504Z,0.80
2022-09-21T15:37:38.128Z,0.70
2022-09-21T15:40:07.286Z,0.60
2022-09-21T15:42:34.983Z,0.70
2022-09-21T15:45:15.058Z,0.63
2022-09-21T15:47:41.710Z,0.70
2022-09-21T15:50:14.782Z,0.57
2022-09-21T15:52:46.190Z,0.75
2022-09-21T15:55:20.295Z,0.68
2022-09-21T15:57:56.546Z,0.55
2022-09-21T16:00:26.187Z,0.47
2022-09-21T16:03:06.938Z,0.60
2022-09-21T16:05:45.376Z,0.65
2022-09-21T16:08:33.941Z,0.60
2022-09-21T16:11:20.630Z,0.70
2022-09-21T16:13:47.418Z,0.57
2022-09-21T16:16:14.660Z,0.70
2022-09-21T16:18:48.316Z,0.70
2022-09-21T16:21:23.141Z,0.55
2022-09-21T16:23:50.771Z,0.60
2022-09-21T16:26:23.399Z,0.60
2022-09-21T16:28:55.612Z,0.70
2022-09-21T16:31:24.343Z,0.57
2022-09-21T16:33:50.863Z,0.52
2022-09-21T16:36:22.804Z,0.40
2022-09-21T16:38:49.520Z,0.50
2022-09-21T16:41:16.605Z,0.68
2022-09-21T16:43:43.917Z,0.60
2022-09-21T16:46:10.986Z,0.60
2022-09-21T16:48:37.683Z,0.60
2022-09-21T16:51:10.220Z,0.52
2022-09-21T16:53:36.756Z,0.52
2022-09-21T16:56:03.362Z,0.63
2022-09-21T16:58:31.847Z,0.70
2022-09-21T17:01:00.848Z,0.88
2022-09-21T17:03:27.752Z,0.65
2022-09-21T17:05:55.547Z,0.52
2022-09-21T17:08:22.099Z,0.65
2022-09-21T17:10:48.959Z,0.70
2022-09-21T17:13:15.586Z,0.70
2022-09-21T17:15:44.557Z,0.63
2022-09-21T17:18:12.206Z,0.68
2022-09-21T17:20:41.129Z,0.60
2022-09-21T17:23:07.887Z,0.65
2022-09-21T17:25:34.619Z,0.65
2022-09-21T17:28:01.920Z,0.80
2022-09-21T17:33:19.131Z,0.70
2022-09-21T17:35:45.884Z,0.60
2022-09-21T17:38:14.588Z,0.75
2022-09-21T17:40:41.663Z,0.60
2022-09-21T17:43:16.963Z,0.80
2022-09-21T17:46:02.058Z,0.63
2022-09-21T17:48:33.746Z,0.70
2022-09-21T17:51:00.985Z,0.65
2022-09-21T17:53:27.753Z,0.63
2022-09-21T17:55:57.258Z,0.80
2022-09-21T17:58:47.117Z,0.70
2022-09-21T18:01:17.499Z,0.60
2022-09-21T18:03:44.232Z,0.70
2022-09-21T18:06:11.334Z,0.60
2022-09-21T18:08:38.748Z,0.80
2022-09-21T18:11:28.740Z,0.70
2022-09-21T18:14:19.904Z,0.60
2022-09-21T18:17:07.004Z,0.60
2022-09-21T18:20:02.703Z,0.70
2022-09-21T18:22:44.834Z,0.60
2022-09-21T18:25:16.654Z,0.63
2022-09-21T18:27:43.580Z,0.77
2022-09-21T18:30:11.879Z,0.80
2022-09-21T18:32:44.373Z,0.60
2022-09-21T18:35:44.995Z,0.80
2022-09-21T18:38:27.648Z,0.82
2022-09-21T18:40:57.384Z,0.60
2022-09-21T18:43:36.100Z,0.75
2022-09-21T18:46:05.812Z,0.80
2022-09-21T18:48:49.969Z,0.82
2022-09-21T18:51:22.634Z,0.77
2022-09-21T18:53:50.833Z,0.80
2022-09-21T18:56:17.560Z,0.75
2022-09-21T18:58:44.320Z,0.70
2022-09-21T19:01:14.445Z,0.70
2022-09-21T19:03:41.637Z,0.80
2022-09-21T19:06:35.332Z,0.80
2022-09-21T19:09:20.046Z,0.90
2022-09-21T19:11:58.692Z,0.77
2022-09-21T19:15:03.395Z,0.80
2022-09-21T19:17:39.722Z,0.82
2022-09-21T19:20:37.480Z,0.70
2022-09-21T19:23:31.014Z,0.77
2022-09-21T19:26:18.372Z,0.80
2022-09-21T19:28:50.369Z,0.80
2022-09-21T19:31:17.887Z,0.80
2022-09-21T19:33:52.077Z,0.77
2022-09-21T19:36:20.620Z,0.90
2022-09-21T19:38:47.414Z,0.80
2022-09-21T19:41:44.437Z,0.80
2022-09-21T19:44:45.107Z,1.00
2022-09-21T19:47:30.980Z,0.80
2022-09-21T19:50:28.594Z,0.70
2022-09-21T19:52:55.512Z,0.80
2022-09-21T19:55:22.596Z,0.73
2022-09-21T19:57:49.705Z,0.70
2022-09-21T20:00:16.817Z,0.90
2022-09-21T20:02:50.772Z,0.95
2022-09-21T20:05:22.716Z,0.70
2022-09-21T20:07:52.139Z,0.90
2022-09-21T20:10:34.242Z,0.93
2022-09-21T20:13:18.829Z,0.70
2022-09-21T20:15:50.033Z,0.93
2022-09-21T20:18:37.136Z,0.82
2022-09-21T20:21:04.117Z,0.88
2022-09-21T20:23:30.970Z,0.70
2022-09-21T20:26:00.752Z,0.93
2022-09-21T20:28:27.518Z,0.93
2022-09-21T20:30:54.186Z,0.75
2022-09-21T20:33:20.920Z,0.90
2022-09-21T20:35:47.401Z,0.80
2022-09-21T20:38:13.999Z,0.80
2022-09-21T20:40:40.741Z,0.73
2022-09-21T20:43:09.196Z,0.70
2022-09-21T20:45:36.483Z,0.70
2022-09-21T20:48:03.123Z,0.85
2022-09-21T20:50:29.777Z,0.88
2022-09-21T20:52:56.402Z,1.08
2022-09-21T20:55:24.437Z,0.90
2022-09-21T20:57:51.018Z,0.70
2022-09-21T21:00:19.431Z,1.00
2022-09-21T21:02:46.156Z,0.73
2022-09-21T21:05:12.820Z,0.90
2022-09-21T21:07:42.610Z,0.90
2022-09-21T21:10:09.577Z,0.70
2022-09-21T21:12:36.152Z,0.70
2022-09-21T21:15:02.798Z,0.80
2022-09-21T21:17:29.752Z,0.80
2022-09-21T21:19:56.422Z,0.70
2022-09-21T21:22:23.051Z,0.95
2022-09-21T21:24:49.713Z,1.05
2022-09-21T21:27:18.268Z,0.80
2022-09-21T21:29:45.416Z,0.80
2022-09-21T21:32:13.051Z,0.80
2022-09-21T21:34:39.753Z,0.82
2022-09-21T21:37:06.429Z,1.00
2022-09-21T21:39:33.055Z,0.85
2022-09-21T21:41:59.771Z,0.80
2022-09-21T21:44:26.446Z,0.80
2022-09-21T21:46:53.134Z,0.85
2022-09-21T21:49:20.412Z,0.98
2022-09-21T21:51:47.069Z,0.80
2022-09-21T21:54:13.879Z,0.85
2022-09-21T21:56:40.411Z,0.90
2022-09-21T21:59:07.038Z,0.80
2022-09-21T22:01:33.811Z,0.80
2022-09-21T22:04:01.733Z,0.93
2022-09-21T22:06:29.554Z,0.90
2022-09-21T22:08:56.266Z,1.00
2022-09-21T22:11:23.304Z,0.90
2022-09-21T22:13:49.932Z,1.00
2022-09-21T22:16:17.977Z,0.90
2022-09-21T22:18:44.704Z,0.90
2022-09-21T22:21:13.295Z,1.00
2022-09-21T22:23:40.042Z,0.90
2022-09-21T22:26:11.237Z,0.80
2022-09-21T22:28:39.139Z,0.90
2022-09-21T22:31:10.622Z,0.90
2022-09-21T22:33:37.562Z,0.90
2022-09-21T22:36:05.193Z,1.00
2022-09-21T22:38:33.051Z,0.85
2022-09-21T22:41:07.291Z,0.80
2022-09-21T22:43:33.898Z,0.85
2022-09-21T22:46:00.565Z,0.85
2022-09-21T22:48:27.404Z,0.90
2022-09-21T22:50:54.073Z,0.93
2022-09-21T22:53:21.279Z,0.90
2022-09-21T22:55:48.205Z,0.90
2022-09-21T22:58:14.994Z,1.00
2022-09-21T23:00:41.578Z,1.10
2022-09-21T23:03:08.220Z,0.90
2022-09-21T23:05:34.870Z,1.00
2022-09-21T23:08:01.739Z,0.73
2022-09-21T23:10:28.297Z,1.02
2022-09-21T23:12:54.905Z,0.90
2022-09-21T23:15:21.560Z,0.90
2022-09-21T23:17:48.118Z,0.88
2022-09-21T23:20:14.809Z,0.88
2022-09-21T23:22:41.382Z,0.90
2022-09-21T23:25:08.243Z,1.00
2022-09-21T23:27:34.915Z,0.88
2022-09-21T23:30:01.425Z,1.00
2022-09-21T23:32:28.220Z,0.70
2022-09-21T23:34:54.859Z,0.90
2022-09-21T23:37:21.425Z,0.82
2022-09-21T23:39:47.962Z,0.90
2022-09-21T23:42:14.504Z,1.08
2022-09-21T23:44:41.082Z,0.85
2022-09-21T23:47:07.805Z,0.90
2022-09-21T23:49:34.468Z,0.90
2022-09-21T23:52:01.219Z,1.00
2022-09-21T23:54:27.859Z,0.95
2022-09-21T23:56:54.441Z,0.80
2022-09-21T23:59:21.129Z,0.95
